Time;durP1;ratioP1;P1;durP2;ratioP2;P2;SDS_P1;SDS_P2;PMS_P1;PMS_P2;Temp;Humidity;BMP_temperature;BMP_pressure;BME280_temperature;BME280_humidity;BME280_pressure;Samples;Min_cycle;Max_cycle;Signal;HPM_P1;HPM_P2
2022/01/26 00:00:57;;;;;;;25.27;12.70;;;;;;;4.10;100.00;101385.59;10479765;28;20690;-70
2022/01/26 00:06:05;;;;;;;22.60;12.57;;;;;;;4.05;100.00;101379.44;10500132;28;20348;-70
2022/01/26 00:11:10;;;;;;;27.53;11.73;;;;;;;4.04;100.00;101381.97;10500319;28;20208;-70
2022/01/26 00:16:23;;;;;;;23.13;12.00;;;;;;;4.05;100.00;101384.59;10499682;28;20661;-69
2022/01/26 00:21:34;;;;;;;22.57;12.93;;;;;;;3.94;100.00;101378.22;10499681;28;20247;-68
2022/01/26 00:27:01;;;;;;;24.70;12.10;;;;;;;4.00;100.00;101386.13;10500422;28;20220;-68
2022/01/26 00:42:50;;;;;;;23.80;12.13;;;;;;;3.98;100.00;101384.31;10499159;28;20715;-68
2022/01/26 00:47:54;;;;;;;27.20;12.17;;;;;;;3.98;100.00;101389.47;10499186;28;20224;-68
2022/01/26 00:52:57;;;;;;;24.90;11.77;;;;;;;4.02;100.00;101387.03;10504545;28;20657;-67
2022/01/26 00:58:03;;;;;;;24.57;11.70;;;;;;;3.94;100.00;101393.63;10506255;28;20224;-69
2022/01/26 01:03:07;;;;;;;25.23;11.97;;;;;;;3.93;100.00;101389.31;10506281;28;20234;-66
2022/01/26 01:08:14;;;;;;;21.13;11.33;;;;;;;3.92;100.00;101386.72;10505985;28;20220;-70
2022/01/26 01:13:29;;;;;;;22.27;11.33;;;;;;;3.91;100.00;101390.06;10505826;28;20526;-69
2022/01/26 01:18:44;;;;;;;22.33;10.50;;;;;;;3.87;100.00;101380.50;10505334;28;20240;-66
2022/01/26 01:24:15;;;;;;;23.27;11.77;;;;;;;3.89;100.00;101382.31;10505275;28;20215;-65
2022/01/26 01:29:23;;;;;;;19.83;10.73;;;;;;;3.89;100.00;101368.59;10505103;28;20227;-66
2022/01/26 01:34:34;;;;;;;22.27;10.93;;;;;;;3.89;100.00;101366.03;10504894;28;20226;-66
2022/01/26 01:39:38;;;;;;;19.47;10.30;;;;;;;3.89;100.00;101360.91;10505002;28;20224;-68
2022/01/26 01:44:43;;;;;;;21.67;11.17;;;;;;;3.87;100.00;101359.97;10504380;28;20216;-68
2022/01/26 01:49:46;;;;;;;32.93;15.80;;;;;;;3.93;100.00;101352.50;10503847;28;20560;-66
2022/01/26 01:54:52;;;;;;;25.43;11.40;;;;;;;3.90;100.00;101350.69;10501039;28;20226;-67
2022/01/26 01:59:57;;;;;;;24.90;12.60;;;;;;;3.83;100.00;101350.44;10500631;28;20224;-65
2022/01/26 02:05:00;;;;;;;25.30;10.83;;;;;;;3.80;100.00;101348.66;10500136;28;20749;-67
2022/01/26 02:10:04;;;;;;;19.63;10.77;;;;;;;3.87;100.00;101349.72;10500420;28;20222;-64
2022/01/26 02:15:14;;;;;;;17.73;10.13;;;;;;;3.89;100.00;101343.81;10179110;27;10000569;-65
2022/01/26 02:20:49;;;;;;;24.50;11.23;;;;;;;3.83;100.00;101346.16;10541699;28;20253;-66
2022/01/26 02:52:55;;;;;;;22.87;12.20;;;;;;;3.66;100.00;101347.31;10498703;28;20212;-66
2022/01/26 03:03:25;;;;;;;23.57;12.37;;;;;;;3.68;100.00;101344.78;10481544;28;20204;-65
2022/01/26 03:08:34;;;;;;;21.57;11.50;;;;;;;3.78;100.00;101341.72;10498107;28;20222;-64
2022/01/26 03:13:42;;;;;;;24.57;11.93;;;;;;;3.61;100.00;101336.03;10515596;28;20191;-70
2022/01/26 03:19:00;;;;;;;20.87;11.73;;;;;;;3.62;100.00;101342.91;10543147;28;20237;-64
2022/01/26 03:29:43;;;;;;;23.83;10.80;;;;;;;3.71;100.00;101339.78;10543058;28;20543;-68
2022/01/26 03:34:53;;;;;;;22.93;11.93;;;;;;;3.60;100.00;101334.28;10542850;28;20207;-66
2022/01/26 03:39:57;;;;;;;24.57;11.83;;;;;;;3.72;100.00;101324.44;10542427;28;20219;-63
2022/01/26 03:45:00;;;;;;;23.13;11.10;;;;;;;3.66;100.00;101323.38;10542367;28;20215;-63
2022/01/26 03:50:04;;;;;;;25.20;11.87;;;;;;;3.71;100.00;101329.50;10542582;28;20614;-69
2022/01/26 03:55:10;;;;;;;23.63;11.20;;;;;;;3.66;100.00;101333.63;10541990;28;20679;-65
2022/01/26 04:00:14;;;;;;;24.43;11.50;;;;;;;3.46;100.00;101336.41;10541949;28;20210;-67
2022/01/26 04:05:17;;;;;;;20.77;11.37;;;;;;;3.61;100.00;101332.59;10542261;28;20539;-64
2022/01/26 04:10:32;;;;;;;22.17;11.37;;;;;;;3.62;100.00;101335.22;10542149;28;20228;-65
2022/01/26 04:15:37;;;;;;;21.23;10.63;;;;;;;3.65;100.00;101340.44;10541923;28;20590;-66
2022/01/26 04:20:44;;;;;;;25.87;11.73;;;;;;;3.67;100.00;101331.09;10541756;28;20231;-65
2022/01/26 04:25:50;;;;;;;26.93;11.80;;;;;;;3.71;100.00;101326.94;10545418;28;20665;-72
2022/01/26 04:30:54;;;;;;;22.60;10.30;;;;;;;3.72;100.00;101326.13;10549564;28;20215;-66
2022/01/26 04:35:57;;;;;;;20.40;11.13;;;;;;;3.70;100.00;101323.50;10549200;28;20226;-66
2022/01/26 04:41:15;;;;;;;21.90;11.43;;;;;;;3.52;100.00;101322.88;10549410;28;20625;-65
2022/01/26 04:46:19;;;;;;;24.67;10.93;;;;;;;3.53;100.00;101320.38;10548975;28;20221;-65
2022/01/26 04:51:22;;;;;;;24.13;11.10;;;;;;;3.62;100.00;101316.38;10548652;28;20661;-66
2022/01/26 04:56:27;;;;;;;19.80;10.50;;;;;;;3.53;100.00;101319.50;10549119;28;20237;-67
2022/01/26 05:01:30;;;;;;;22.93;10.23;;;;;;;3.61;100.00;101314.63;10548237;28;20255;-63
2022/01/26 05:06:33;;;;;;;20.60;9.90;;;;;;;3.64;100.00;101307.91;10548107;28;20284;-64
2022/01/26 05:11:41;;;;;;;21.53;10.17;;;;;;;3.53;100.00;101292.16;10548411;28;20302;-64
2022/01/26 05:16:44;;;;;;;17.40;7.97;;;;;;;3.57;100.00;101294.81;10547598;28;20231;-68
2022/01/26 05:21:47;;;;;;;17.63;8.37;;;;;;;3.56;100.00;101288.81;10547355;28;20253;-66
2022/01/26 05:26:52;;;;;;;15.53;7.40;;;;;;;3.48;100.00;101291.13;10547246;28;20229;-64
2022/01/26 05:31:55;;;;;;;74.97;33.47;;;;;;;3.49;100.00;101297.13;10546868;28;20680;-65
2022/01/26 05:36:58;;;;;;;14.17;6.17;;;;;;;3.52;100.00;101292.97;10546233;28;20314;-68
2022/01/26 05:42:05;;;;;;;15.70;6.97;;;;;;;3.56;100.00;101283.69;10546632;28;20799;-64
2022/01/26 05:47:14;;;;;;;11.87;6.10;;;;;;;3.43;100.00;101284.97;10546492;28;20630;-65
2022/01/26 05:52:17;;;;;;;14.23;5.53;;;;;;;3.50;100.00;101289.47;10546018;28;20223;-64
2022/01/26 05:57:22;;;;;;;12.50;5.33;;;;;;;3.48;100.00;101287.69;10545759;28;20660;-66
2022/01/26 06:02:25;;;;;;;9.80;5.47;;;;;;;3.53;100.00;101288.72;10546228;28;20194;-63
2022/01/26 06:07:28;;;;;;;12.47;5.30;;;;;;;3.57;100.00;101290.56;10545742;28;20696;-64
2022/01/26 06:12:34;;;;;;;14.87;6.23;;;;;;;3.43;100.00;101291.81;10545364;28;20191;-65
2022/01/26 06:17:37;;;;;;;12.07;6.13;;;;;;;3.36;100.00;101282.16;10544709;28;20227;-65
2022/01/26 06:22:40;;;;;;;51.30;23.77;;;;;;;3.33;100.00;101282.06;10545059;28;20282;-70
2022/01/26 06:27:45;;;;;;;14.47;6.90;;;;;;;3.44;100.00;101280.72;10544937;28;20299;-66
2022/01/26 06:32:50;;;;;;;15.73;7.63;;;;;;;3.43;100.00;101274.69;10545350;28;20187;-66
2022/01/26 06:37:56;;;;;;;16.93;7.23;;;;;;;3.42;100.00;101264.38;10544536;28;20216;-63
2022/01/26 06:43:04;;;;;;;16.63;6.83;;;;;;;3.33;100.00;101270.09;10544103;28;20194;-67
2022/01/26 06:53:28;;;;;;;13.40;7.33;;;;;;;3.32;100.00;101270.03;10495502;28;20215;-65
2022/01/26 06:58:33;;;;;;;15.57;7.67;;;;;;;3.47;100.00;101273.97;10501358;28;20353;-64
2022/01/26 07:03:36;;;;;;;16.40;8.30;;;;;;;3.46;100.00;101271.38;10502115;28;20200;-62
2022/01/26 07:08:40;;;;;;;15.33;7.27;;;;;;;3.45;100.00;101267.94;10501384;28;20207;-66
2022/01/26 07:13:45;;;;;;;13.67;5.90;;;;;;;3.47;100.00;101270.53;10500895;28;20663;-66
2022/01/26 07:24:09;;;;;;;20.30;7.82;;;;;;;3.48;100.00;101267.16;10150351;27;10001373;-67
2022/01/26 07:29:16;;;;;;;11.50;6.50;;;;;;;3.50;100.00;101265.53;10513897;28;20403;-66
2022/01/26 07:34:22;;;;;;;13.60;6.67;;;;;;;3.42;100.00;101260.13;10496834;28;20202;-68
2022/01/26 07:39:41;;;;;;;14.83;7.30;;;;;;;3.38;100.00;101262.56;10497359;28;20227;-63
2022/01/26 07:44:45;;;;;;;14.37;7.23;;;;;;;3.49;100.00;101266.34;10497211;28;20226;-65
2022/01/26 07:49:49;;;;;;;16.83;7.57;;;;;;;3.61;100.00;101282.13;10497315;28;20499;-65
2022/01/26 07:54:53;;;;;;;17.30;7.83;;;;;;;3.51;100.00;101280.09;10497182;28;20219;-65
2022/01/26 07:59:58;;;;;;;15.23;6.30;;;;;;;3.61;100.00;101282.13;10499352;28;20211;-65
2022/01/26 08:05:01;;;;;;;19.47;7.43;;;;;;;3.49;100.00;101272.34;10504754;28;20242;-66
2022/01/26 08:10:06;;;;;;;17.40;7.27;;;;;;;3.45;100.00;101269.63;10508200;28;20211;-66
2022/01/26 08:15:11;;;;;;;12.57;6.47;;;;;;;3.65;100.00;101262.56;10506291;28;20279;-70
2022/01/26 08:20:14;;;;;;;14.33;7.00;;;;;;;3.75;100.00;101264.59;10504355;28;20311;-67
2022/01/26 08:25:18;;;;;;;16.80;6.77;;;;;;;3.83;100.00;101263.16;10502669;28;20237;-63
2022/01/26 08:30:23;;;;;;;13.70;6.23;;;;;;;3.90;100.00;101268.50;10504265;28;20215;-66
2022/01/26 08:35:26;;;;;;;11.97;5.67;;;;;;;3.97;100.00;101261.91;10504895;28;20637;-63
2022/01/26 08:40:30;;;;;;;12.17;6.10;;;;;;;4.05;100.00;101265.56;10500209;28;20274;-66
2022/01/26 08:45:35;;;;;;;9.90;5.27;;;;;;;3.92;100.00;101272.00;10482339;28;20193;-66
2022/01/26 08:50:38;;;;;;;13.90;5.47;;;;;;;3.76;100.00;101277.50;10482415;28;20242;-68
2022/01/26 08:55:42;;;;;;;10.20;5.53;;;;;;;3.96;100.00;101260.13;10503424;28;20188;-67
2022/01/26 09:00:46;;;;;;;15.00;6.07;;;;;;;3.98;100.00;101259.38;10501667;28;20220;-70
2022/01/26 09:05:51;;;;;;;14.17;5.63;;;;;;;4.05;100.00;101258.75;10499734;28;20176;-68
2022/01/26 09:10:59;;;;;;;15.93;5.50;;;;;;;4.28;100.00;101254.28;10502153;28;20220;-66
2022/01/26 09:16:07;;;;;;;11.83;6.10;;;;;;;4.35;100.00;101251.03;10547523;28;20205;-67
2022/01/26 09:21:11;;;;;;;14.37;6.57;;;;;;;4.28;100.00;101251.72;10506107;28;20267;-66
2022/01/26 09:26:14;;;;;;;15.67;8.27;;;;;;;4.42;100.00;101248.69;10504190;28;20184;-72
2022/01/26 09:31:19;;;;;;;16.73;8.37;;;;;;;4.60;100.00;101256.94;10505133;28;20196;-66
2022/01/26 09:36:22;;;;;;;15.90;7.37;;;;;;;4.50;100.00;101257.50;10504556;28;20254;-67
2022/01/26 09:41:26;;;;;;;16.43;8.10;;;;;;;4.48;100.00;101248.91;10505069;28;20240;-67
2022/01/26 09:46:31;;;;;;;15.33;7.23;;;;;;;4.45;100.00;101253.91;10503994;28;20284;-66
2022/01/26 09:51:40;;;;;;;18.33;8.13;;;;;;;4.17;100.00;101256.53;10505102;28;20212;-67
2022/01/26 09:56:46;;;;;;;16.43;8.77;;;;;;;4.00;100.00;101256.84;10502788;28;20244;-67
2022/01/26 10:01:52;;;;;;;15.53;8.20;;;;;;;4.13;100.00;101246.97;10503577;28;20226;-65
2022/01/26 10:07:07;;;;;;;17.33;8.47;;;;;;;4.17;100.00;101246.25;10503668;28;20246;-68
2022/01/26 10:17:35;;;;;;;16.73;7.80;;;;;;;4.25;100.00;101236.19;10502608;28;20642;-64
2022/01/26 10:22:38;;;;;;;17.77;8.43;;;;;;;4.43;100.00;101227.34;10503119;28;20307;-68
2022/01/26 10:27:43;;;;;;;20.40;7.73;;;;;;;4.48;100.00;101219.75;10501290;28;20220;-63
2022/01/26 10:32:49;;;;;;;14.07;7.87;;;;;;;4.35;100.00;101215.94;10502281;28;20539;-64
2022/01/26 10:37:55;;;;;;;15.37;6.97;;;;;;;4.54;100.00;101202.78;10502103;28;20234;-65
2022/01/26 10:43:04;;;;;;;18.47;6.47;;;;;;;4.70;100.00;101202.38;10501598;28;20267;-66
2022/01/26 10:48:17;;;;;;;13.83;6.37;;;;;;;4.26;100.00;101195.13;10501533;28;20285;-64
2022/01/26 10:53:37;;;;;;;16.10;7.70;;;;;;;4.39;100.00;101186.06;10157520;27;10001163;-65
2022/01/26 10:58:40;;;;;;;26.47;10.30;;;;;;;4.43;100.00;101181.09;10496858;28;20254;-67
2022/01/26 11:03:46;;;;;;;13.23;6.83;;;;;;;4.63;100.00;101164.47;10498365;28;20212;-65
2022/01/26 11:08:51;;;;;;;11.23;4.57;;;;;;;4.52;96.21;101163.31;10498544;28;20256;-64
2022/01/26 11:13:54;;;;;;;9.60;4.73;;;;;;;4.64;95.81;101163.63;10500578;28;20674;-63
2022/01/26 11:19:19;;;;;;;8.60;4.37;;;;;;;4.82;94.86;101162.38;10500319;28;20242;-66
2022/01/26 11:24:24;;;;;;;11.33;5.10;;;;;;;4.62;95.82;101159.31;10499650;28;20271;-64
2022/01/26 11:29:32;;;;;;;12.30;5.03;;;;;;;4.41;96.14;101151.91;10500484;28;20192;-64
2022/01/26 11:34:37;;;;;;;10.47;5.03;;;;;;;4.20;100.00;101160.69;10499571;28;20202;-64
2022/01/26 11:45:10;;;;;;;11.13;5.30;;;;;;;4.38;100.00;101151.78;10499982;28;20541;-68
2022/01/26 11:50:20;;;;;;;13.33;5.70;;;;;;;4.16;100.00;101148.63;10500443;28;20196;-64
2022/01/26 11:55:29;;;;;;;14.13;6.07;;;;;;;4.03;100.00;101137.13;10499930;28;20268;-64
2022/01/26 12:00:40;;;;;;;15.93;8.07;;;;;;;3.95;100.00;101130.03;10497304;28;20218;-67
2022/01/26 12:05:47;;;;;;;16.07;10.13;;;;;;;3.74;100.00;101129.38;10498986;28;20275;-66
2022/01/26 12:10:51;;;;;;;18.90;9.87;;;;;;;3.60;100.00;101134.13;10499856;28;20200;-65
2022/01/26 12:15:58;;;;;;;18.33;11.13;;;;;;;3.65;100.00;101122.28;10499619;28;20203;-68
2022/01/26 12:37:33;;;;;;;13.37;8.47;;;;;;;3.63;100.00;101123.06;10499494;28;20640;-65
2022/01/26 12:42:56;;;;;;;14.17;7.30;;;;;;;3.65;100.00;101112.03;10496056;28;20228;-66
2022/01/26 12:48:19;;;;;;;13.67;7.37;;;;;;;3.40;100.00;101104.41;10501758;28;20595;-67
2022/01/26 12:53:26;;;;;;;64.87;36.70;;;;;;;3.48;100.00;101095.25;10504832;28;20544;-68
2022/01/26 12:58:31;;;;;;;13.00;8.13;;;;;;;3.34;100.00;101086.28;10506194;28;20254;-64
2022/01/26 13:03:36;;;;;;;14.70;8.40;;;;;;;3.58;100.00;101091.25;10505662;28;20295;-66
2022/01/26 13:08:47;;;;;;;14.07;7.43;;;;;;;3.67;100.00;101088.97;10506002;28;20220;-63
2022/01/26 13:13:50;;;;;;;17.43;8.30;;;;;;;3.68;100.00;101090.69;10505605;28;20561;-64
2022/01/26 13:19:12;;;;;;;20.97;11.53;;;;;;;3.71;100.00;101081.38;10505403;28;20227;-64
2022/01/26 13:24:34;;;;;;;13.37;8.10;;;;;;;3.69;100.00;101082.19;10505041;28;20274;-68
2022/01/26 13:29:53;;;;;;;29.50;14.00;;;;;;;3.52;100.00;101076.53;10504633;28;20306;-65
2022/01/26 13:40:39;;;;;;;17.67;8.53;;;;;;;3.60;100.00;101071.66;10504441;28;20223;-66
2022/01/26 13:51:22;;;;;;;15.00;7.73;;;;;;;3.57;100.00;101054.47;10476863;28;20326;-65
2022/01/26 13:56:40;;;;;;;13.60;7.00;;;;;;;3.51;100.00;101054.28;10500561;28;20242;-65
2022/01/26 14:01:45;;;;;;;20.43;10.77;;;;;;;3.57;100.00;101044.22;10502339;28;20233;-64
2022/01/26 14:06:49;;;;;;;13.53;7.50;;;;;;;3.63;100.00;101041.81;10503433;28;20253;-65
2022/01/26 14:11:53;;;;;;;18.03;8.23;;;;;;;3.65;100.00;101053.00;10503165;28;20223;-65
2022/01/26 14:16:59;;;;;;;13.10;6.40;;;;;;;3.83;100.00;101039.81;10503216;28;20273;-66
2022/01/26 14:27:33;;;;;;;11.67;6.53;;;;;;;3.77;100.00;101032.81;10502656;28;20533;-67
2022/01/26 14:33:05;;;;;;;11.43;6.40;;;;;;;3.82;100.00;101026.09;10501371;28;20238;-65
2022/01/26 15:42:50;;;;;;;16.80;10.57;;;;;;;4.25;100.00;100995.59;10499751;28;20223;-66
2022/01/26 15:53:27;;;;;;;22.67;13.63;;;;;;;4.19;100.00;100981.72;10496490;28;20220;-66
2022/01/26 15:58:44;;;;;;;21.20;11.80;;;;;;;4.25;100.00;100981.84;10497194;28;20226;-65
2022/01/26 16:53:09;;;;;;;12.07;6.80;;;;;;;4.36;100.00;100976.19;10503442;28;20299;-64
2022/01/26 17:11:09;;;;;;;11.97;6.87;;;;;;;4.27;100.00;100957.09;10478494;28;20236;-66
2022/01/26 17:47:02;;;;;;;9.10;5.83;;;;;;;4.02;100.00;100947.03;10504579;28;20224;-63
2022/01/26 18:40:45;;;;;;;11.13;6.90;;;;;;;4.03;100.00;100920.53;10502459;28;20302;-66
2022/01/26 18:51:17;;;;;;;10.20;5.70;;;;;;;4.03;100.00;100923.09;10463930;28;20227;-65
2022/01/26 18:56:20;;;;;;;13.57;7.30;;;;;;;3.89;100.00;100934.69;10501765;28;20537;-65
2022/01/26 19:01:25;;;;;;;15.80;8.87;;;;;;;3.80;100.00;100939.59;10501771;28;20277;-66
2022/01/26 19:06:51;;;;;;;11.47;6.20;;;;;;;3.55;100.00;100932.97;10501374;28;20293;-70
2022/01/26 19:11:56;;;;;;;11.27;5.67;;;;;;;3.51;100.00;100926.88;10501426;28;20203;-67
2022/01/26 19:17:06;;;;;;;60.50;28.03;;;;;;;3.63;100.00;100930.59;10501521;28;20206;-65
2022/01/26 19:27:34;;;;;;;11.63;6.37;;;;;;;3.51;100.00;100928.56;10497367;28;20290;-61
2022/01/26 19:53:59;;;;;;;15.40;7.33;;;;;;;3.14;100.00;100934.34;10500402;28;20227;-63
2022/01/26 19:59:02;;;;;;;12.23;7.43;;;;;;;3.20;100.00;100924.28;10508294;28;20207;-61
2022/01/26 20:04:07;;;;;;;16.17;8.13;;;;;;;3.16;100.00;100926.72;10508962;28;20230;-63
2022/01/26 20:09:16;;;;;;;15.83;6.83;;;;;;;3.15;100.00;100941.25;10508693;28;20211;-68
2022/01/26 20:14:23;;;;;;;13.80;7.70;;;;;;;3.09;100.00;100896.63;10508238;28;20550;-66
2022/01/26 20:19:28;;;;;;;12.57;7.53;;;;;;;3.14;100.00;100888.19;10508172;28;20236;-64
2022/01/26 20:24:32;;;;;;;16.40;8.73;;;;;;;3.13;100.00;100883.03;10507832;28;20310;-68
2022/01/26 20:29:43;;;;;;;17.73;10.17;;;;;;;3.08;100.00;100882.91;10507810;28;20557;-65
2022/01/26 20:34:49;;;;;;;16.80;8.40;;;;;;;3.11;100.00;100870.19;10507600;28;20220;-64
2022/01/26 20:39:54;;;;;;;13.40;6.60;;;;;;;3.14;100.00;100887.34;10506802;28;20238;-65
2022/01/26 20:44:57;;;;;;;17.03;9.17;;;;;;;3.01;100.00;100870.75;10506916;28;20216;-66
2022/01/26 20:50:03;;;;;;;14.50;7.13;;;;;;;3.06;100.00;100865.75;10506844;28;20295;-66
2022/01/26 20:55:08;;;;;;;13.60;7.23;;;;;;;3.08;100.00;100872.66;10506800;28;20227;-65
2022/01/26 21:00:14;;;;;;;13.03;6.77;;;;;;;3.12;100.00;100858.25;10506217;28;20224;-67
2022/01/26 21:05:25;;;;;;;12.60;6.90;;;;;;;3.17;100.00;100867.81;10506555;28;20247;-65
2022/01/26 21:10:28;;;;;;;13.90;7.80;;;;;;;3.08;100.00;100853.84;10505352;28;20216;-65
2022/01/26 21:15:31;;;;;;;12.00;6.30;;;;;;;3.14;100.00;100851.47;10505933;28;20303;-66
2022/01/26 21:20:37;;;;;;;12.70;6.90;;;;;;;2.79;100.00;100849.59;10505581;28;20236;-66
2022/01/26 21:25:41;;;;;;;15.37;6.47;;;;;;;2.70;100.00;100839.94;10505628;28;20232;-68
2022/01/26 21:30:44;;;;;;;10.10;5.40;;;;;;;2.73;100.00;100851.97;10505546;28;20227;-65
2022/01/26 21:35:48;;;;;;;12.23;7.03;;;;;;;2.71;100.00;100849.34;10505193;28;20311;-64
2022/01/26 21:40:52;;;;;;;13.53;7.30;;;;;;;2.63;100.00;100843.16;10505080;28;20243;-65
2022/01/26 21:45:55;;;;;;;15.30;8.87;;;;;;;2.45;100.00;100852.84;10504921;28;20223;-68
2022/01/26 21:50:59;;;;;;;15.03;7.60;;;;;;;2.53;100.00;100850.53;10504126;28;20677;-66
2022/01/26 21:56:03;;;;;;;15.27;8.13;;;;;;;2.42;100.00;100845.06;10504084;28;20637;-65
2022/01/26 22:01:07;;;;;;;12.93;7.80;;;;;;;2.60;100.00;100858.44;10504045;28;20303;-65
2022/01/26 22:06:11;;;;;;;14.53;8.37;;;;;;;2.58;100.00;100844.72;10503586;28;20710;-68
2022/01/26 22:11:15;;;;;;;15.37;8.37;;;;;;;2.57;100.00;100840.44;10503468;28;20248;-70
2022/01/26 22:16:18;;;;;;;17.03;9.37;;;;;;;2.55;100.00;100836.06;10503406;28;20216;-67
2022/01/26 22:21:31;;;;;;;15.83;8.97;;;;;;;2.53;100.00;100853.09;10502679;28;20350;-64
2022/01/26 22:26:35;;;;;;;19.23;10.33;;;;;;;2.65;100.00;100827.81;10503402;28;20216;-67
2022/01/26 22:31:38;;;;;;;14.87;7.97;;;;;;;2.60;100.00;100837.06;10502656;28;20224;-66
2022/01/26 22:36:43;;;;;;;16.63;9.83;;;;;;;2.56;100.00;100828.44;10501808;28;20231;-66
2022/01/26 22:41:46;;;;;;;13.30;8.50;;;;;;;2.65;100.00;100825.25;10502300;28;20224;-65
2022/01/26 22:46:50;;;;;;;17.33;9.27;;;;;;;2.78;100.00;100830.78;10502294;28;20216;-68
2022/01/26 22:51:54;;;;;;;14.47;7.70;;;;;;;2.47;100.00;100827.31;10502220;28;20220;-65
2022/01/26 22:56:59;;;;;;;16.13;7.70;;;;;;;2.62;100.00;100823.50;10501062;28;20220;-65
2022/01/26 23:07:40;;;;;;;17.73;8.37;;;;;;;2.61;100.00;100824.31;10498907;28;20298;-67
2022/01/26 23:12:44;;;;;;;15.90;9.30;;;;;;;2.50;100.00;100824.81;10501477;28;20315;-67
2022/01/26 23:17:47;;;;;;;14.20;7.53;;;;;;;2.58;100.00;100806.28;10501043;28;20232;-68
2022/01/26 23:22:54;;;;;;;15.10;8.97;;;;;;;2.64;100.00;100816.69;10500840;28;20727;-66
2022/01/26 23:28:26;;;;;;;14.30;8.80;;;;;;;2.56;100.00;100812.19;10500559;28;20669;-65
2022/01/26 23:39:23;;;;;;;16.30;8.07;;;;;;;2.48;100.00;100804.28;10497602;28;20238;-64
2022/01/26 23:57:18;;;;;;;14.93;8.03;;;;;;;2.42;100.00;100785.31;10147095;28;10000385;-66
